createdAt,value
2018-12-17T00:01:17.419Z,60.13
2018-12-17T00:03:47.050Z,65.23
2018-12-17T00:06:16.577Z,66.73
2018-12-17T00:08:44.413Z,78.60
2018-12-17T00:11:12.078Z,73.13
2018-12-17T00:13:39.597Z,65.87
2018-12-17T00:16:07.468Z,71.43
2018-12-17T00:18:35.298Z,70.80
2018-12-17T00:21:02.798Z,67.10
2018-12-17T00:23:30.241Z,74.77
2018-12-17T00:25:57.788Z,70.70
2018-12-17T00:28:25.638Z,83.43
2018-12-17T00:30:53.175Z,79.70
2018-12-17T00:33:20.919Z,92.73
2018-12-17T00:35:48.389Z,76.13
2018-12-17T00:38:16.350Z,80.30
2018-12-17T00:40:43.897Z,80.83
2018-12-17T00:43:11.402Z,87.27
2018-12-17T00:45:38.964Z,76.97
2018-12-17T00:48:06.483Z,79.57
2018-12-17T00:50:34.238Z,75.27
2018-12-17T00:53:01.814Z,73.07
2018-12-17T00:55:29.335Z,85.20
2018-12-17T00:57:56.847Z,73.57
2018-12-17T01:00:24.339Z,93.17
2018-12-17T01:02:51.956Z,79.43
2018-12-17T01:05:20.864Z,77.17
2018-12-17T01:07:48.605Z,86.13
2018-12-17T01:10:16.353Z,81.83
2018-12-17T01:12:44.213Z,86.40
2018-12-17T01:15:11.775Z,78.33
2018-12-17T01:17:39.528Z,75.00
2018-12-17T01:20:07.279Z,89.33
2018-12-17T01:22:35.914Z,66.43
2018-12-17T01:25:03.542Z,78.87
2018-12-17T01:27:31.019Z,79.57
2018-12-17T01:29:58.522Z,86.97
2018-12-17T01:32:26.012Z,82.73
2018-12-17T01:34:53.745Z,83.10
2018-12-17T01:37:21.209Z,79.03
2018-12-17T01:39:48.729Z,70.77
2018-12-17T01:42:16.434Z,76.30
2018-12-17T01:44:43.993Z,77.87
2018-12-17T01:47:11.533Z,71.87
2018-12-17T01:49:39.056Z,66.00
2018-12-17T01:52:06.837Z,84.93
2018-12-17T01:54:34.377Z,59.13
2018-12-17T01:57:02.046Z,75.07
2018-12-17T01:59:29.652Z,63.97
2018-12-17T02:02:04.137Z,70.47
2018-12-17T02:04:31.647Z,69.00
2018-12-17T02:06:59.122Z,66.20
2018-12-17T02:09:26.614Z,74.07
2018-12-17T02:11:54.096Z,64.73
2018-12-17T02:14:21.641Z,73.27
2018-12-17T02:16:49.711Z,61.83
2018-12-17T02:19:17.197Z,73.10
2018-12-17T02:21:44.705Z,61.50
2018-12-17T02:24:12.281Z,68.80
2018-12-17T02:26:39.779Z,67.97
2018-12-17T02:29:07.654Z,76.17
2018-12-17T02:31:35.137Z,65.30
2018-12-17T02:34:02.830Z,62.40
2018-12-17T02:36:30.634Z,76.40
2018-12-17T02:38:58.180Z,60.20
2018-12-17T02:41:25.872Z,78.93
2018-12-17T02:43:53.607Z,79.83
2018-12-17T02:46:21.253Z,60.77
2018-12-17T02:48:48.786Z,61.57
2018-12-17T02:51:16.292Z,71.13
2018-12-17T02:53:44.432Z,63.00
2018-12-17T02:56:12.098Z,67.63
2018-12-17T02:58:43.950Z,69.90
2018-12-17T03:04:38.050Z,73.17
2018-12-17T03:07:05.557Z,61.27
2018-12-17T03:09:33.089Z,60.07
2018-12-17T03:12:00.591Z,68.87
2018-12-17T03:14:28.436Z,65.87
2018-12-17T03:16:55.909Z,66.03
2018-12-17T03:19:23.380Z,59.17
2018-12-17T03:21:51.085Z,61.87
2018-12-17T03:24:21.561Z,58.77
2018-12-17T03:26:49.093Z,65.37
2018-12-17T03:29:16.576Z,56.70
2018-12-17T03:31:44.381Z,51.80
2018-12-17T03:34:11.871Z,60.30
2018-12-17T03:36:39.434Z,51.73
2018-12-17T03:39:07.222Z,51.70
2018-12-17T03:41:36.893Z,57.53
2018-12-17T03:44:07.380Z,56.87
2018-12-17T03:46:34.866Z,57.87
2018-12-17T03:49:02.827Z,67.40
2018-12-17T03:51:30.461Z,53.53
2018-12-17T03:53:57.917Z,73.50
2018-12-17T03:56:27.302Z,51.57
2018-12-17T03:58:59.275Z,58.00
2018-12-17T04:01:24.430Z,47.90
2018-12-17T04:03:51.969Z,54.10
2018-12-17T04:06:19.432Z,62.97
2018-12-17T04:08:47.158Z,49.53
2018-12-17T04:11:14.732Z,66.30
2018-12-17T04:13:42.370Z,52.03
2018-12-17T04:16:09.856Z,53.87
2018-12-17T04:18:37.421Z,51.70
2018-12-17T04:21:05.044Z,59.27
2018-12-17T04:23:32.556Z,59.70
2018-12-17T04:26:09.157Z,52.23
2018-12-17T04:28:36.645Z,51.47
2018-12-17T04:31:04.210Z,54.73
2018-12-17T04:33:31.788Z,53.50
2018-12-17T04:35:59.333Z,71.50
2018-12-17T04:38:26.857Z,71.37
2018-12-17T04:40:54.350Z,68.00
2018-12-17T04:43:21.901Z,76.53
2018-12-17T04:45:49.561Z,61.33
2018-12-17T04:48:17.088Z,58.90
2018-12-17T04:50:44.592Z,61.37
2018-12-17T04:53:12.315Z,52.40
2018-12-17T04:55:40.010Z,67.63
2018-12-17T04:58:07.646Z,60.17
2018-12-17T05:00:35.169Z,70.60
2018-12-17T05:03:03.026Z,50.30
2018-12-17T05:05:30.535Z,74.37
2018-12-17T05:07:58.204Z,59.47
2018-12-17T05:10:25.742Z,68.87
2018-12-17T05:12:53.220Z,68.83
2018-12-17T05:15:20.830Z,60.40
2018-12-17T05:17:57.207Z,66.70
2018-12-17T05:20:25.477Z,66.50
2018-12-17T05:22:53.015Z,68.07
2018-12-17T05:25:20.781Z,55.70
2018-12-17T05:27:48.517Z,71.67
2018-12-17T05:30:16.382Z,68.27
2018-12-17T05:32:43.999Z,63.97
2018-12-17T05:35:11.586Z,84.77
2018-12-17T05:37:41.612Z,70.27
2018-12-17T05:40:09.250Z,64.80
2018-12-17T05:42:37.088Z,65.03
2018-12-17T05:45:05.151Z,63.93
2018-12-17T05:47:32.636Z,65.90
2018-12-17T05:50:00.343Z,77.70
2018-12-17T05:52:27.910Z,60.53
2018-12-17T05:54:55.551Z,77.40
2018-12-17T05:57:23.050Z,72.53
2018-12-17T05:59:50.969Z,65.27
2018-12-17T06:02:18.434Z,69.10
2018-12-17T06:04:45.970Z,74.93
2018-12-17T06:07:13.660Z,61.97
2018-12-17T06:09:41.298Z,55.90
2018-12-17T06:12:09.810Z,68.10
2018-12-17T06:14:37.482Z,60.77
2018-12-17T06:17:04.995Z,64.37
2018-12-17T06:19:32.530Z,64.27
2018-12-17T06:22:00.167Z,67.13
2018-12-17T06:24:28.842Z,59.13
2018-12-17T06:26:56.369Z,73.87
2018-12-17T06:29:23.853Z,59.83
2018-12-17T06:31:51.327Z,59.40
2018-12-17T06:34:18.788Z,59.83
2018-12-17T06:36:46.237Z,80.07
2018-12-17T06:39:14.894Z,64.70
2018-12-17T06:41:42.573Z,61.83
2018-12-17T06:44:10.380Z,63.10
2018-12-17T06:46:37.868Z,61.03
2018-12-17T06:49:05.377Z,64.07
2018-12-17T06:51:33.522Z,53.97
2018-12-17T06:54:01.028Z,60.03
2018-12-17T06:56:28.497Z,51.07
2018-12-17T06:58:56.057Z,61.23
2018-12-17T07:01:23.665Z,73.10
2018-12-17T07:03:51.308Z,59.93
2018-12-17T07:06:18.965Z,65.97
2018-12-17T07:08:46.425Z,59.27
2018-12-17T07:11:14.412Z,63.53
2018-12-17T07:13:41.985Z,59.27
2018-12-17T07:16:09.548Z,61.77
2018-12-17T07:18:37.340Z,68.73
2018-12-17T07:21:04.865Z,56.73
2018-12-17T07:23:32.377Z,57.67
2018-12-17T07:25:59.825Z,75.67
2018-12-17T07:28:27.466Z,76.47
2018-12-17T07:30:54.982Z,64.47
2018-12-17T07:33:22.921Z,64.57
2018-12-17T07:35:50.389Z,62.37
2018-12-17T07:38:17.861Z,73.07
2018-12-17T07:40:45.313Z,80.10
2018-12-17T07:43:12.913Z,76.53
2018-12-17T07:45:40.457Z,74.97
2018-12-17T07:48:08.206Z,74.73
2018-12-17T07:50:35.728Z,71.50
2018-12-17T07:53:03.383Z,87.03
2018-12-17T07:55:30.859Z,84.40
2018-12-17T07:57:58.443Z,85.63
2018-12-17T08:00:25.986Z,77.23
2018-12-17T08:02:53.442Z,79.60
2018-12-17T08:05:20.908Z,99.10
2018-12-17T08:07:48.526Z,87.20
2018-12-17T08:10:16.055Z,82.77
2018-12-17T08:12:43.647Z,80.07
2018-12-17T08:15:43.214Z,81.87
2018-12-17T08:18:23.848Z,81.97
2018-12-17T08:23:44.024Z,73.87
2018-12-17T08:26:11.533Z,83.07
2018-12-17T08:28:39.097Z,91.30
2018-12-17T08:31:07.070Z,84.10
2018-12-17T08:33:34.593Z,86.03
2018-12-17T08:36:02.385Z,78.07
2018-12-17T08:38:29.885Z,78.67
2018-12-17T08:40:57.412Z,80.43
2018-12-17T08:43:24.883Z,87.70
2018-12-17T08:45:52.429Z,79.50
2018-12-17T08:48:19.891Z,93.37
2018-12-17T08:50:48.511Z,88.13
2018-12-17T08:53:16.135Z,93.27
2018-12-17T08:55:43.604Z,84.43
2018-12-17T08:58:11.293Z,84.43
2018-12-17T09:00:38.794Z,81.73
2018-12-17T09:03:13.510Z,88.23
2018-12-17T09:05:41.372Z,79.40
2018-12-17T09:08:08.977Z,78.80
2018-12-17T09:10:36.444Z,97.27
2018-12-17T09:13:04.293Z,80.07
2018-12-17T09:15:33.086Z,79.83
2018-12-17T09:18:00.622Z,87.27
2018-12-17T09:20:28.120Z,74.87
2018-12-17T09:22:55.697Z,79.77
2018-12-17T09:25:23.256Z,82.40
2018-12-17T09:27:50.729Z,78.13
2018-12-17T09:30:18.717Z,82.57
2018-12-17T09:32:46.359Z,79.07
2018-12-17T09:35:13.997Z,75.33
2018-12-17T09:37:41.532Z,68.90
2018-12-17T09:40:09.403Z,71.27
2018-12-17T09:42:37.006Z,78.67
2018-12-17T09:45:05.754Z,76.67
2018-12-17T09:47:33.272Z,75.20
2018-12-17T09:50:00.894Z,65.87
2018-12-17T09:52:28.545Z,70.67
2018-12-17T09:54:56.329Z,77.03
2018-12-17T09:57:23.813Z,72.60
2018-12-17T09:59:51.269Z,75.73
2018-12-17T10:02:18.868Z,67.00
2018-12-17T10:04:46.334Z,67.57
2018-12-17T10:07:14.380Z,69.83
2018-12-17T10:09:41.943Z,71.37
2018-12-17T10:12:09.506Z,62.13
2018-12-17T10:14:38.134Z,69.93
2018-12-17T10:17:05.711Z,62.03
2018-12-17T10:19:33.277Z,62.53
2018-12-17T10:22:02.145Z,57.00
2018-12-17T10:24:29.793Z,64.47
2018-12-17T10:26:57.297Z,59.60
2018-12-17T10:29:24.794Z,63.80
2018-12-17T10:31:52.296Z,66.70
2018-12-17T10:34:19.764Z,58.03
2018-12-17T10:36:47.291Z,58.40
2018-12-17T10:39:15.086Z,54.03
2018-12-17T10:41:43.847Z,59.47
2018-12-17T10:44:13.583Z,52.90
2018-12-17T10:46:41.392Z,53.10
2018-12-17T10:49:09.002Z,44.40
2018-12-17T10:51:36.605Z,43.23
2018-12-17T10:54:04.157Z,45.87
2018-12-17T10:56:31.902Z,40.27
2018-12-17T10:58:59.467Z,48.73
2018-12-17T11:01:32.728Z,42.03
2018-12-17T11:04:03.903Z,38.33
2018-12-17T11:06:31.812Z,43.43
2018-12-17T11:08:59.312Z,42.10
2018-12-17T11:11:26.789Z,40.10
2018-12-17T11:13:54.365Z,40.07
2018-12-17T11:16:21.882Z,41.67
2018-12-17T11:18:49.397Z,42.03
2018-12-17T11:21:17.005Z,44.97
2018-12-17T11:23:44.936Z,39.27
2018-12-17T11:26:12.528Z,40.67
2018-12-17T11:28:40.171Z,40.90
2018-12-17T11:31:07.709Z,37.13
2018-12-17T11:33:35.349Z,41.10
2018-12-17T11:36:02.977Z,34.33
2018-12-17T11:38:30.537Z,35.93
2018-12-17T11:40:58.153Z,36.00
2018-12-17T11:43:25.644Z,38.00
2018-12-17T11:45:53.529Z,35.97
2018-12-17T11:48:21.290Z,34.50
2018-12-17T11:50:48.875Z,38.90
2018-12-17T11:53:16.728Z,36.07
2018-12-17T11:55:44.200Z,35.63
2018-12-17T11:58:13.363Z,35.57
2018-12-17T12:00:56.106Z,42.33
2018-12-17T12:03:24.009Z,33.27
2018-12-17T12:05:51.838Z,37.33
2018-12-17T12:08:19.346Z,34.23
2018-12-17T12:10:46.949Z,36.60
2018-12-17T12:13:14.531Z,35.63
2018-12-17T12:15:42.151Z,34.50
2018-12-17T12:18:09.926Z,37.97
2018-12-17T12:20:37.517Z,32.67
2018-12-17T12:23:05.557Z,29.70
2018-12-17T12:25:33.110Z,34.07
2018-12-17T12:28:00.897Z,32.27
2018-12-17T12:30:28.381Z,27.13
2018-12-17T12:32:56.010Z,27.53
2018-12-17T12:35:24.913Z,30.40
2018-12-17T12:37:52.388Z,32.80
2018-12-17T12:40:19.945Z,31.03
2018-12-17T12:42:51.626Z,30.87
2018-12-17T12:45:17.017Z,26.57
2018-12-17T12:47:44.682Z,27.43
2018-12-17T12:50:12.897Z,28.13
2018-12-17T12:52:41.137Z,25.37
2018-12-17T12:55:08.753Z,24.43
2018-12-17T12:57:36.290Z,25.20
2018-12-17T13:00:07.025Z,23.07
2018-12-17T13:02:34.780Z,25.90
2018-12-17T13:05:02.505Z,24.23
2018-12-17T13:07:30.494Z,24.10
2018-12-17T13:09:57.972Z,22.60
2018-12-17T13:12:25.454Z,27.20
2018-12-17T13:14:52.992Z,23.00
2018-12-17T13:17:26.184Z,24.73
2018-12-17T13:19:53.881Z,23.60
2018-12-17T13:22:22.005Z,23.13
2018-12-17T13:24:49.476Z,21.00
2018-12-17T13:27:17.014Z,19.80
2018-12-17T13:29:44.530Z,22.90
2018-12-17T13:32:12.309Z,17.93
2018-12-17T13:34:40.157Z,21.50
2018-12-17T13:37:07.718Z,19.23
2018-12-17T13:39:35.218Z,25.33
2018-12-17T13:42:02.939Z,19.40
2018-12-17T13:44:30.638Z,21.60
2018-12-17T13:46:58.093Z,20.73
2018-12-17T13:49:25.618Z,20.67
2018-12-17T13:51:58.881Z,23.53
2018-12-17T13:54:26.544Z,29.33
2018-12-17T13:56:54.158Z,24.67
2018-12-17T13:59:21.856Z,23.67
2018-12-17T14:01:51.549Z,20.07
2018-12-17T14:04:18.907Z,21.53
2018-12-17T14:06:47.057Z,20.70
2018-12-17T14:09:16.110Z,20.73
2018-12-17T14:11:46.404Z,17.80
2018-12-17T14:14:14.312Z,16.37
2018-12-17T14:16:47.470Z,18.50
2018-12-17T14:19:21.865Z,16.53
2018-12-17T14:21:57.272Z,18.17
2018-12-17T14:24:24.765Z,16.70
2018-12-17T14:26:52.581Z,18.57
2018-12-17T14:29:20.085Z,20.77
2018-12-17T14:31:47.530Z,18.30
2018-12-17T14:34:15.061Z,19.33
2018-12-17T14:36:42.549Z,18.33
2018-12-17T14:39:10.060Z,16.57
2018-12-17T14:41:37.654Z,18.87
2018-12-17T14:44:10.777Z,19.83
2018-12-17T14:46:44.183Z,17.37
2018-12-17T14:49:11.681Z,19.80
2018-12-17T14:51:39.374Z,15.17
2018-12-17T14:54:08.089Z,21.27
2018-12-17T14:56:35.581Z,17.97
2018-12-17T14:59:03.135Z,18.87
2018-12-17T15:01:35.805Z,20.37
2018-12-17T15:04:01.398Z,22.10
2018-12-17T15:06:28.956Z,21.90
2018-12-17T15:08:56.654Z,19.70
2018-12-17T15:11:24.295Z,23.30
2018-12-17T15:13:52.928Z,20.43
2018-12-17T15:16:20.402Z,22.30
2018-12-17T15:18:47.892Z,19.73
2018-12-17T15:21:15.428Z,19.90
2018-12-17T15:23:42.980Z,22.37
2018-12-17T15:26:10.597Z,20.47
2018-12-17T15:28:38.206Z,21.37
2018-12-17T15:31:06.177Z,21.10
2018-12-17T15:33:36.832Z,23.20
2018-12-17T15:36:04.604Z,20.40
2018-12-17T15:38:32.150Z,19.70
2018-12-17T15:40:59.609Z,21.00
2018-12-17T15:43:27.068Z,23.73
2018-12-17T15:45:54.605Z,23.77
2018-12-17T15:48:22.259Z,23.77
2018-12-17T15:50:49.818Z,26.33
2018-12-17T15:53:17.448Z,27.30
2018-12-17T15:55:45.207Z,24.90
2018-12-17T15:58:12.811Z,28.00
2018-12-17T16:00:40.546Z,28.87
2018-12-17T16:03:08.673Z,29.43
2018-12-17T16:05:36.169Z,26.97
2018-12-17T16:08:03.777Z,27.80
2018-12-17T16:10:31.572Z,28.00
2018-12-17T16:12:59.290Z,27.67
2018-12-17T16:15:26.775Z,31.40
2018-12-17T16:17:54.317Z,38.23
2018-12-17T16:20:21.784Z,30.50
2018-12-17T16:22:49.466Z,33.70
2018-12-17T16:25:17.312Z,32.50
2018-12-17T16:27:44.782Z,33.17
2018-12-17T16:30:13.602Z,30.53
2018-12-17T16:32:41.532Z,31.33
2018-12-17T16:35:09.246Z,38.43
2018-12-17T16:37:36.802Z,37.03
2018-12-17T16:40:05.958Z,34.23
2018-12-17T16:42:33.553Z,38.40
2018-12-17T16:45:01.106Z,35.07
2018-12-17T16:47:28.844Z,37.83
2018-12-17T16:49:56.333Z,38.45
2018-12-17T16:52:23.846Z,39.93
2018-12-17T16:54:51.459Z,44.37
2018-12-17T16:57:18.945Z,40.93
2018-12-17T16:59:46.530Z,39.80
2018-12-17T17:02:13.962Z,41.70
2018-12-17T17:04:41.604Z,44.73
2018-12-17T17:07:09.254Z,38.33
2018-12-17T17:09:36.741Z,47.23
2018-12-17T17:12:04.493Z,43.90
2018-12-17T17:14:32.052Z,51.37
2018-12-17T17:17:00.061Z,44.80
2018-12-17T17:19:27.648Z,45.97
2018-12-17T17:21:55.212Z,46.40
2018-12-17T17:24:22.646Z,43.83
2018-12-17T17:26:50.262Z,43.23
2018-12-17T17:29:17.885Z,43.73
2018-12-17T17:31:45.385Z,40.07
2018-12-17T17:34:12.873Z,49.10
2018-12-17T17:36:40.702Z,47.50
2018-12-17T17:39:08.562Z,47.80
2018-12-17T17:41:36.334Z,44.50
2018-12-17T17:44:04.005Z,46.93
2018-12-17T17:46:31.615Z,44.60
2018-12-17T17:48:59.260Z,44.93
2018-12-17T17:51:26.943Z,45.00
2018-12-17T17:53:54.429Z,51.37
2018-12-17T17:56:21.888Z,53.87
2018-12-17T17:58:49.419Z,43.67
2018-12-17T18:01:17.422Z,50.30
2018-12-17T18:03:44.938Z,51.93
2018-12-17T18:06:16.295Z,50.43
2018-12-17T18:08:42.543Z,53.80
2018-12-17T18:11:10.036Z,48.20
2018-12-17T18:13:37.541Z,47.47
2018-12-17T18:16:05.021Z,50.87
2018-12-17T18:18:32.546Z,48.00
2018-12-17T18:21:00.085Z,49.10
2018-12-17T18:23:27.531Z,53.53
2018-12-17T18:25:55.018Z,47.73
2018-12-17T18:28:22.489Z,53.07
2018-12-17T18:30:49.988Z,51.20
2018-12-17T18:33:17.598Z,53.00
2018-12-17T18:35:45.342Z,57.57
2018-12-17T18:38:12.983Z,50.13
2018-12-17T18:40:40.863Z,52.83
2018-12-17T18:43:08.751Z,49.73
2018-12-17T18:45:36.342Z,52.47
2018-12-17T18:48:04.066Z,51.87
2018-12-17T18:50:31.732Z,53.50
2018-12-17T18:52:59.385Z,51.63
2018-12-17T18:55:26.909Z,52.03
2018-12-17T18:57:54.495Z,54.03
2018-12-17T19:00:22.077Z,55.00
2018-12-17T19:02:49.568Z,51.77
2018-12-17T19:05:17.074Z,52.30
2018-12-17T19:07:44.570Z,53.20
2018-12-17T19:10:12.749Z,52.13
2018-12-17T19:12:40.961Z,55.27
2018-12-17T19:15:08.881Z,65.63
2018-12-17T19:17:37.127Z,55.13
2018-12-17T19:20:04.911Z,55.63
2018-12-17T19:22:32.606Z,51.87
2018-12-17T19:25:00.382Z,56.90
2018-12-17T19:27:27.931Z,57.80
2018-12-17T19:29:55.424Z,54.73
2018-12-17T19:32:23.226Z,59.57
2018-12-17T19:34:51.106Z,54.03
2018-12-17T19:37:18.606Z,54.70
2018-12-17T19:39:46.099Z,52.80
2018-12-17T19:42:13.648Z,54.13
2018-12-17T19:44:41.171Z,53.93
2018-12-17T19:47:08.940Z,49.13
2018-12-17T19:49:36.530Z,50.97
2018-12-17T19:52:04.039Z,50.50
2018-12-17T19:54:31.513Z,50.50
2018-12-17T19:56:59.161Z,47.50
2018-12-17T19:59:26.860Z,49.87
2018-12-17T20:01:54.960Z,50.90
2018-12-17T20:04:22.648Z,50.50
2018-12-17T20:06:50.209Z,50.57
2018-12-17T20:09:17.716Z,43.30
2018-12-17T20:11:45.403Z,45.03
2018-12-17T20:14:13.022Z,48.53
2018-12-17T20:16:40.962Z,44.70
2018-12-17T20:19:08.857Z,45.10
2018-12-17T20:21:37.557Z,43.67
2018-12-17T20:24:05.108Z,42.27
2018-12-17T20:26:32.841Z,42.13
2018-12-17T20:29:00.342Z,46.03
2018-12-17T20:31:27.899Z,43.37
2018-12-17T20:33:55.758Z,41.47
2018-12-17T20:36:23.405Z,39.17
2018-12-17T20:38:50.932Z,39.67
2018-12-17T20:41:18.417Z,41.33
2018-12-17T20:43:45.905Z,45.57
2018-12-17T20:46:13.671Z,44.87
2018-12-17T20:48:41.137Z,42.73
2018-12-17T20:51:08.961Z,44.80
2018-12-17T20:53:36.788Z,38.73
2018-12-17T20:56:04.397Z,41.83
2018-12-17T20:58:31.961Z,43.77
2018-12-17T21:00:59.827Z,42.63
2018-12-17T21:03:27.354Z,43.33
2018-12-17T21:05:54.878Z,43.10
2018-12-17T21:08:22.581Z,42.27
2018-12-17T21:10:50.035Z,41.50
2018-12-17T21:13:17.560Z,43.60
2018-12-17T21:15:45.093Z,42.00
2018-12-17T21:18:12.979Z,40.37
2018-12-17T21:20:40.613Z,42.23
2018-12-17T21:23:08.624Z,40.37
2018-12-17T21:25:36.123Z,43.10
2018-12-17T21:28:03.734Z,40.93
2018-12-17T21:30:31.230Z,38.27
2018-12-17T21:32:58.954Z,36.70
2018-12-17T21:35:26.472Z,39.80
2018-12-17T21:37:54.070Z,43.90
2018-12-17T21:40:22.101Z,43.77
2018-12-17T21:42:49.582Z,40.00
2018-12-17T21:45:17.131Z,41.93
2018-12-17T21:47:44.670Z,41.47
2018-12-17T21:50:12.358Z,42.50
2018-12-17T21:52:39.875Z,42.70
2018-12-17T21:55:07.877Z,40.77
2018-12-17T21:57:35.562Z,42.77
2018-12-17T22:00:04.180Z,38.43
2018-12-17T22:02:33.889Z,40.53
2018-12-17T22:05:01.633Z,44.90
2018-12-17T22:07:31.364Z,44.50
2018-12-17T22:09:59.029Z,41.23
2018-12-17T22:12:26.801Z,48.50
2018-12-17T22:15:01.501Z,43.17
2018-12-17T22:17:29.915Z,46.90
2018-12-17T22:19:57.411Z,43.03
2018-12-17T22:22:24.941Z,44.77
2018-12-17T22:24:52.849Z,44.50
2018-12-17T22:27:20.661Z,56.57
2018-12-17T22:29:48.325Z,44.90
2018-12-17T22:32:16.249Z,42.80
2018-12-17T22:34:44.039Z,43.53
2018-12-17T22:37:11.724Z,43.00
2018-12-17T22:39:39.264Z,48.83
2018-12-17T22:42:06.749Z,43.17
2018-12-17T22:44:34.532Z,45.47
2018-12-17T22:47:03.345Z,46.60
2018-12-17T22:49:32.108Z,44.17
2018-12-17T22:51:59.713Z,41.20
2018-12-17T22:54:27.227Z,40.90
2018-12-17T22:56:54.725Z,44.20
2018-12-17T22:59:22.438Z,50.30
2018-12-17T23:01:49.917Z,42.07
2018-12-17T23:04:17.521Z,44.17
2018-12-17T23:06:45.165Z,46.63
2018-12-17T23:09:11.936Z,43.37
2018-12-17T23:11:58.714Z,45.10
2018-12-17T23:14:37.677Z,42.20
2018-12-17T23:20:10.262Z,41.80
2018-12-17T23:22:42.345Z,39.47
2018-12-17T23:25:12.000Z,46.73
2018-12-17T23:27:47.817Z,46.90
2018-12-17T23:30:15.585Z,42.90
2018-12-17T23:32:43.075Z,46.27
2018-12-17T23:35:10.654Z,46.77
2018-12-17T23:37:38.187Z,45.90
2018-12-17T23:40:06.273Z,44.10
2018-12-17T23:42:33.921Z,54.30
2018-12-17T23:45:01.542Z,53.50
2018-12-17T23:47:29.078Z,47.07
2018-12-17T23:49:56.554Z,47.03
2018-12-17T23:52:24.131Z,42.13
2018-12-17T23:54:51.624Z,47.87
2018-12-17T23:57:19.109Z,44.43
2018-12-17T23:59:46.666Z,44.73
